Impacts METAR Board
IDs:

KDTW - Detroit Metro/Wayne, MI, US

Updated at: 0400 UTC 25 May 2018
Potential Impact None Slight Moderate High
Time 24/16Z 24/17Z 24/18Z 24/19Z 24/20Z 24/21Z 24/22Z 24/23Z 25/00Z 25/01Z 25/02Z 25/03Z 25/04Z
Temp79 80 82 82 81 81 80 79 77 73 72 69 65
Dewpt50 50 49 51 52 50 49 50 50 50 48 51 51
Altim30.23 30.22 30.19 30.18 30.16 30.14 30.13 30.11 30.10 30.09 30.09 30.09 30.09
VIS10 10 10 10 10 10 10 10 10 10 10 10 10
CIG-- -- -- 250 250 250 250 -- -- -- -- -- --
CoverSCTSCTSCTBKNBKNBKNBKNSCTSCTSCTFEWFEWFEW
FltCatVFRVFRVFRVFRVFRVFRVFRVFRVFRVFRVFRVFRVFR
WX--------------------------
WDir18015002001501601601701601800200200
WSpd4 4 4 9 7 10 8 10 7 5 0 3 3
WGst-- -- -- -- -- -- -- -- -- -- -- -- --
Raw hourly METARs
KDTW 241553Z 18004KT 10SM SCT250 26/10 A3023 RMK AO2 SLP234 T02610100
KDTW 241653Z 15004KT 10SM SCT250 27/10 A3022 RMK AO2 SLP229 T02670100
KDTW 241753Z VRB04KT 10SM FEW080 SCT250 28/09 A3019 RMK AO2 SLP222 T02780094 10278 20183 58014
KDTW 241853Z 20009KT 10SM FEW080 BKN250 28/11 A3018 RMK AO2 SLP216 T02780106
KDTW 241953Z 15007KT 10SM FEW080 BKN250 27/11 A3016 RMK AO2 SLP209 T02720111
KDTW 242053Z 16010KT 10SM BKN250 27/10 A3014 RMK AO2 SLP201 T02720100 58020
KDTW 242153Z 16008KT 10SM BKN250 27/09 A3013 RMK AO2 SLP198 T02670094
KDTW 242253Z 17010KT 10SM SCT250 26/10 A3011 RMK AO2 SLP193 T02610100
KDTW 242353Z 16007KT 10SM SCT250 25/10 A3010 RMK AO2 SLP189 T02500100 10278 20250 57012
KDTW 250053Z 18005KT 10SM SCT250 23/10 A3009 RMK AO2 SLP186 T02280100
KDTW 250153Z 00000KT 10SM FEW250 22/09 A3009 RMK AO2 SLP186 T02220089
KDTW 250253Z 20003KT 10SM FEW250 21/11 A3009 RMK AO2 SLP184 T02060106 56004
KDTW 250353Z 20003KT 10SM FEW250 18/11 A3009 RMK AO2 SLP184 T01830106



Page loaded:  04:44 UTC  |   09:44 PM Pacific  |   10:44 PM Mountain  |   11:44 PM Central  |   12:44 AM Eastern

 

ADVISORIES

FORECASTS

FORECASTS

OBSERVATIONS

USER TOOLS

ABOUT US